sensor_id;sensor_type;location;lat;lon;timestamp;pressure;altitude;pressure_sealevel;temperature;humidity
48614;BME280;34408;51.426;5.444;2023-03-11T00:01:17;100672.63;;;5.49;58.23
48614;BME280;34408;51.426;5.444;2023-03-11T00:03:45;100669.34;;;5.47;58.18
48614;BME280;34408;51.426;5.444;2023-03-11T00:06:13;100666.66;;;5.47;57.90
48614;BME280;34408;51.426;5.444;2023-03-11T00:08:42;100679.16;;;5.46;57.97
48614;BME280;34408;51.426;5.444;2023-03-11T00:11:09;100680.19;;;5.45;57.98
48614;BME280;34408;51.426;5.444;2023-03-11T00:13:37;100672.38;;;5.44;58.43
48614;BME280;34408;51.426;5.444;2023-03-11T00:16:06;100680.38;;;5.44;58.17
48614;BME280;34408;51.426;5.444;2023-03-11T00:18:34;100678.72;;;5.43;58.36
48614;BME280;34408;51.426;5.444;2023-03-11T00:21:02;100682.03;;;5.45;58.02
48614;BME280;34408;51.426;5.444;2023-03-11T00:23:29;100687.56;;;5.43;58.54
48614;BME280;34408;51.426;5.444;2023-03-11T00:25:59;100685.91;;;5.42;58.43
48614;BME280;34408;51.426;5.444;2023-03-11T00:28:28;100684.06;;;5.43;58.20
48614;BME280;34408;51.426;5.444;2023-03-11T00:30:59;100687.75;;;5.42;58.31
48614;BME280;34408;51.426;5.444;2023-03-11T00:33:27;100688.56;;;5.42;58.48
48614;BME280;34408;51.426;5.444;2023-03-11T00:35:55;100687.13;;;5.40;58.32
48614;BME280;34408;51.426;5.444;2023-03-11T00:38:23;100697.78;;;5.40;58.26
48614;BME280;34408;51.426;5.444;2023-03-11T00:40:51;100698.78;;;5.39;58.57
48614;BME280;34408;51.426;5.444;2023-03-11T00:43:20;100699.63;;;5.39;58.08
48614;BME280;34408;51.426;5.444;2023-03-11T00:45:47;100697.34;;;5.36;58.06
48614;BME280;34408;51.426;5.444;2023-03-11T00:48:15;100695.31;;;5.38;58.17
48614;BME280;34408;51.426;5.444;2023-03-11T00:50:43;100706.16;;;5.37;58.36
48614;BME280;34408;51.426;5.444;2023-03-11T00:53:11;100700.00;;;5.36;58.10
48614;BME280;34408;51.426;5.444;2023-03-11T00:55:39;100707.34;;;5.34;58.38
48614;BME280;34408;51.426;5.444;2023-03-11T00:58:07;100709.19;;;5.34;58.41
48614;BME280;34408;51.426;5.444;2023-03-11T01:00:36;100709.19;;;5.34;58.28
48614;BME280;34408;51.426;5.444;2023-03-11T01:03:04;100716.38;;;5.33;58.52
48614;BME280;34408;51.426;5.444;2023-03-11T01:05:32;100721.50;;;5.35;58.37
48614;BME280;34408;51.426;5.444;2023-03-11T01:08:02;100737.50;;;5.35;58.64
48614;BME280;34408;51.426;5.444;2023-03-11T01:10:31;100736.03;;;5.32;58.49
48614;BME280;34408;51.426;5.444;2023-03-11T01:13:00;100737.06;;;5.31;58.39
48614;BME280;34408;51.426;5.444;2023-03-11T01:15:29;100733.13;;;5.27;58.26
48614;BME280;34408;51.426;5.444;2023-03-11T01:17:59;100746.69;;;5.32;58.36
48614;BME280;34408;51.426;5.444;2023-03-11T01:20:27;100742.38;;;5.31;58.54
48614;BME280;34408;51.426;5.444;2023-03-11T01:22:55;100755.50;;;5.33;57.96
48614;BME280;34408;51.426;5.444;2023-03-11T01:25:24;100752.22;;;5.31;58.39
48614;BME280;34408;51.426;5.444;2023-03-11T01:27:51;100748.72;;;5.30;58.58
48614;BME280;34408;51.426;5.444;2023-03-11T01:30:22;100748.72;;;5.30;58.36
48614;BME280;34408;51.426;5.444;2023-03-11T01:32:51;100752.22;;;5.31;58.49
48614;BME280;34408;51.426;5.444;2023-03-11T01:35:22;100749.94;;;5.28;58.42
48614;BME280;34408;51.426;5.444;2023-03-11T01:37:51;100734.69;;;5.21;58.68
48614;BME280;34408;51.426;5.444;2023-03-11T01:40:25;100751.38;;;5.30;58.53
48614;BME280;34408;51.426;5.444;2023-03-11T01:42:53;100750.75;;;5.28;58.42
48614;BME280;34408;51.426;5.444;2023-03-11T01:46:04;100745.22;;;5.30;58.41
48614;BME280;34408;51.426;5.444;2023-03-11T01:48:29;100752.41;;;5.29;58.69
48614;BME280;34408;51.426;5.444;2023-03-11T01:50:58;100755.88;;;5.30;58.46
48614;BME280;34408;51.426;5.444;2023-03-11T01:53:27;100751.56;;;5.29;58.40
48614;BME280;34408;51.426;5.444;2023-03-11T01:55:55;100748.91;;;5.29;58.36
48614;BME280;34408;51.426;5.444;2023-03-11T01:58:27;100750.75;;;5.28;58.43
48614;BME280;34408;51.426;5.444;2023-03-11T02:00:58;100751.94;;;5.26;58.57
48614;BME280;34408;51.426;5.444;2023-03-11T02:03:30;100753.78;;;5.25;58.60
48614;BME280;34408;51.426;5.444;2023-03-11T02:06:01;100752.97;;;5.24;58.34
48614;BME280;34408;51.426;5.444;2023-03-11T02:08:30;100753.16;;;5.23;58.47
48614;BME280;34408;51.426;5.444;2023-03-11T02:11:01;100755.63;;;5.24;58.85
48614;BME280;34408;51.426;5.444;2023-03-11T02:13:31;100751.69;;;5.20;58.32
48614;BME280;34408;51.426;5.444;2023-03-11T02:15:59;100756.22;;;5.20;58.42
48614;BME280;34408;51.426;5.444;2023-03-11T02:18:28;100748.81;;;5.15;58.39
48614;BME280;34408;51.426;5.444;2023-03-11T02:21:05;100758.91;;;5.20;58.80
48614;BME280;34408;51.426;5.444;2023-03-11T02:23:38;100752.94;;;5.18;58.51
48614;BME280;34408;51.426;5.444;2023-03-11T02:26:12;100756.41;;;5.18;58.64
48614;BME280;34408;51.426;5.444;2023-03-11T02:28:45;100753.94;;;5.17;58.56
48614;BME280;34408;51.426;5.444;2023-03-11T02:31:13;100759.28;;;5.17;58.57
48614;BME280;34408;51.426;5.444;2023-03-11T02:33:41;100759.47;;;5.15;58.37
48614;BME280;34408;51.426;5.444;2023-03-11T02:36:30;100763.78;;;5.16;58.30
48614;BME280;34408;51.426;5.444;2023-03-11T02:38:59;100756.59;;;5.17;58.94
48614;BME280;34408;51.426;5.444;2023-03-11T02:41:27;100759.47;;;5.15;58.57
48614;BME280;34408;51.426;5.444;2023-03-11T02:43:58;100751.84;;;5.12;58.69
48614;BME280;34408;51.426;5.444;2023-03-11T02:46:26;100752.03;;;5.11;58.46
48614;BME280;34408;51.426;5.444;2023-03-11T02:48:55;100754.69;;;5.11;58.19
48614;BME280;34408;51.426;5.444;2023-03-11T02:51:23;100759.19;;;5.10;58.40
48614;BME280;34408;51.426;5.444;2023-03-11T02:53:53;100764.53;;;5.10;58.83
48614;BME280;34408;51.426;5.444;2023-03-11T02:56:24;100751.41;;;5.09;58.43
48614;BME280;34408;51.426;5.444;2023-03-11T02:58:51;100751.22;;;5.10;58.68
48614;BME280;34408;51.426;5.444;2023-03-11T03:01:21;100753.06;;;5.10;58.53
48614;BME280;34408;51.426;5.444;2023-03-11T03:03:49;100751.59;;;5.07;58.23
48614;BME280;34408;51.426;5.444;2023-03-11T03:06:17;100757.28;;;5.04;58.50
48614;BME280;34408;51.426;5.444;2023-03-11T03:08:45;100760.41;;;5.08;58.90
48614;BME280;34408;51.426;5.444;2023-03-11T03:11:12;100759.56;;;5.07;58.84
48614;BME280;34408;51.426;5.444;2023-03-11T03:13:40;100756.91;;;5.07;58.64
48614;BME280;34408;51.426;5.444;2023-03-11T03:16:08;100763.25;;;5.06;58.95
48614;BME280;34408;51.426;5.444;2023-03-11T03:18:37;100763.19;;;5.00;58.90
48614;BME280;34408;51.426;5.444;2023-03-11T03:21:05;100772.25;;;5.05;58.65
48614;BME280;34408;51.426;5.444;2023-03-11T03:23:33;100783.09;;;5.04;58.37
48614;BME280;34408;51.426;5.444;2023-03-11T03:26:03;100790.25;;;5.03;58.40
48614;BME280;34408;51.426;5.444;2023-03-11T03:28:31;100787.59;;;5.03;58.43
48614;BME280;34408;51.426;5.444;2023-03-11T03:31:03;100796.59;;;5.02;58.76
48614;BME280;34408;51.426;5.444;2023-03-11T03:33:31;100795.59;;;5.03;58.74
48614;BME280;34408;51.426;5.444;2023-03-11T03:36:05;100806.44;;;5.02;58.55
48614;BME280;34408;51.426;5.444;2023-03-11T03:38:32;100815.44;;;5.01;58.38
48614;BME280;34408;51.426;5.444;2023-03-11T03:41:00;100810.28;;;4.99;58.32
48614;BME280;34408;51.426;5.444;2023-03-11T03:43:28;100818.28;;;4.99;58.53
48614;BME280;34408;51.426;5.444;2023-03-11T03:45:57;100815.63;;;4.99;58.30
48614;BME280;34408;51.426;5.444;2023-03-11T03:48:26;100813.13;;;4.98;58.17
48614;BME280;34408;51.426;5.444;2023-03-11T03:50:53;100821.31;;;4.96;58.48
48614;BME280;34408;51.426;5.444;2023-03-11T03:53:23;100821.31;;;4.96;58.51
48614;BME280;34408;51.426;5.444;2023-03-11T03:55:50;100820.50;;;4.96;58.32
48614;BME280;34408;51.426;5.444;2023-03-11T03:58:20;100823.16;;;4.96;58.56
48614;BME280;34408;51.426;5.444;2023-03-11T04:00:47;100836.47;;;4.96;58.40
48614;BME280;34408;51.426;5.444;2023-03-11T04:03:15;100833.81;;;4.96;58.18
48614;BME280;34408;51.426;5.444;2023-03-11T04:05:43;100837.47;;;4.95;58.54
48614;BME280;34408;51.426;5.444;2023-03-11T04:08:11;100835.66;;;4.95;58.69
48614;BME280;34408;51.426;5.444;2023-03-11T04:10:40;100827.00;;;4.93;58.79
48614;BME280;34408;51.426;5.444;2023-03-11T04:13:07;100828.84;;;4.93;58.71
48614;BME280;34408;51.426;5.444;2023-03-11T04:15:36;100834.00;;;4.94;58.78
48614;BME280;34408;51.426;5.444;2023-03-11T04:18:04;100836.66;;;4.94;59.00
48614;BME280;34408;51.426;5.444;2023-03-11T04:20:32;100831.50;;;4.93;58.71
48614;BME280;34408;51.426;5.444;2023-03-11T04:23:00;100833.34;;;4.92;59.02
48614;BME280;34408;51.426;5.444;2023-03-11T04:25:27;100832.34;;;4.93;58.94
48614;BME280;34408;51.426;5.444;2023-03-11T04:27:56;100842.81;;;4.95;58.96
48614;BME280;34408;51.426;5.444;2023-03-11T04:30:24;100825.66;;;4.82;58.73
48614;BME280;34408;51.426;5.444;2023-03-11T04:32:52;100844.19;;;4.90;58.74
48614;BME280;34408;51.426;5.444;2023-03-11T04:35:20;100840.69;;;4.90;59.04
48614;BME280;34408;51.426;5.444;2023-03-11T04:37:47;100839.03;;;4.89;58.82
48614;BME280;34408;51.426;5.444;2023-03-11T04:40:16;100834.72;;;4.88;59.19
48614;BME280;34408;51.426;5.444;2023-03-11T04:42:44;100836.56;;;4.87;58.52
48614;BME280;34408;51.426;5.444;2023-03-11T04:45:13;100836.56;;;4.87;59.08
48614;BME280;34408;51.426;5.444;2023-03-11T04:47:46;100839.22;;;4.87;59.32
48614;BME280;34408;51.426;5.444;2023-03-11T04:50:14;100841.91;;;4.87;58.84
48614;BME280;34408;51.426;5.444;2023-03-11T04:52:42;100850.88;;;4.86;59.11
48614;BME280;34408;51.426;5.444;2023-03-11T04:55:10;100853.56;;;4.86;59.21
48614;BME280;34408;51.426;5.444;2023-03-11T04:57:39;100844.75;;;4.86;58.65
48614;BME280;34408;51.426;5.444;2023-03-11T05:00:09;100841.25;;;4.85;59.29
48614;BME280;34408;51.426;5.444;2023-03-11T05:02:39;100846.75;;;4.84;58.99
48614;BME280;34408;51.426;5.444;2023-03-11T05:05:08;100848.59;;;4.83;59.13
48614;BME280;34408;51.426;5.444;2023-03-11T05:07:36;100854.94;;;4.82;59.46
48614;BME280;34408;51.426;5.444;2023-03-11T05:10:05;100854.94;;;4.82;59.27
48614;BME280;34408;51.426;5.444;2023-03-11T05:12:33;100862.09;;;4.82;59.35
48614;BME280;34408;51.426;5.444;2023-03-11T05:15:00;100863.09;;;4.81;59.06
48614;BME280;34408;51.426;5.444;2023-03-11T05:17:28;100863.28;;;4.79;59.64
48614;BME280;34408;51.426;5.444;2023-03-11T05:19:57;100865.31;;;4.77;59.13
48614;BME280;34408;51.426;5.444;2023-03-11T05:22:25;100872.47;;;4.77;59.09
48614;BME280;34408;51.426;5.444;2023-03-11T05:24:53;100871.81;;;4.75;59.02
48614;BME280;34408;51.426;5.444;2023-03-11T05:27:21;100875.31;;;4.75;59.09
48614;BME280;34408;51.426;5.444;2023-03-11T05:29:48;100872.84;;;4.74;59.60
48614;BME280;34408;51.426;5.444;2023-03-11T05:32:16;100878.16;;;4.74;59.24
48614;BME280;34408;51.426;5.444;2023-03-11T05:34:44;100881.84;;;4.73;59.08
48614;BME280;34408;51.426;5.444;2023-03-11T05:37:14;100886.16;;;4.74;59.36
48614;BME280;34408;51.426;5.444;2023-03-11T05:39:41;100890.66;;;4.73;59.46
48614;BME280;34408;51.426;5.444;2023-03-11T05:42:09;100890.81;;;4.72;58.97
48614;BME280;34408;51.426;5.444;2023-03-11T05:44:37;100895.50;;;4.70;59.52
48614;BME280;34408;51.426;5.444;2023-03-11T05:47:06;100896.34;;;4.70;59.21
48614;BME280;34408;51.426;5.444;2023-03-11T05:49:34;100895.88;;;4.67;59.53
48614;BME280;34408;51.426;5.444;2023-03-11T05:52:02;100905.50;;;4.68;59.66
48614;BME280;34408;51.426;5.444;2023-03-11T05:54:31;100902.03;;;4.67;59.81
48614;BME280;34408;51.426;5.444;2023-03-11T05:56:59;100900.38;;;4.66;59.76
48614;BME280;34408;51.426;5.444;2023-03-11T05:59:27;100900.38;;;4.66;59.41
48614;BME280;34408;51.426;5.444;2023-03-11T06:01:54;100908.16;;;4.68;59.65
48614;BME280;34408;51.426;5.444;2023-03-11T06:04:22;100903.78;;;4.75;58.74
48614;BME280;34408;51.426;5.444;2023-03-11T06:06:50;100902.97;;;4.89;58.45
48614;BME280;34408;51.426;5.444;2023-03-11T06:09:18;100910.94;;;5.04;58.55
48614;BME280;34408;51.426;5.444;2023-03-11T06:11:47;100911.75;;;5.19;57.88
48614;BME280;34408;51.426;5.444;2023-03-11T06:14:15;100919.78;;;5.40;57.20
48614;BME280;34408;51.426;5.444;2023-03-11T06:16:42;100914.25;;;5.56;56.94
48614;BME280;34408;51.426;5.444;2023-03-11T06:19:11;100908.06;;;5.71;56.25
48614;BME280;34408;51.426;5.444;2023-03-11T06:21:40;100916.47;;;5.89;55.81
48614;BME280;34408;51.426;5.444;2023-03-11T06:24:07;100920.38;;;6.08;54.98
48614;BME280;34408;51.426;5.444;2023-03-11T06:26:35;100923.53;;;6.18;54.84
48614;BME280;34408;51.426;5.444;2023-03-11T06:29:07;100925.84;;;6.21;54.70
48614;BME280;34408;51.426;5.444;2023-03-11T06:31:35;100929.00;;;6.10;54.88
48614;BME280;34408;51.426;5.444;2023-03-11T06:34:05;100932.94;;;5.93;55.27
48614;BME280;34408;51.426;5.444;2023-03-11T06:36:33;100937.00;;;5.74;55.68
48614;BME280;34408;51.426;5.444;2023-03-11T06:39:01;100941.53;;;5.59;56.24
48614;BME280;34408;51.426;5.444;2023-03-11T06:41:32;100950.22;;;5.46;56.63
48614;BME280;34408;51.426;5.444;2023-03-11T06:43:59;100963.19;;;5.34;57.09
48614;BME280;34408;51.426;5.444;2023-03-11T06:46:29;100963.44;;;5.24;57.35
48614;BME280;34408;51.426;5.444;2023-03-11T06:48:57;100972.41;;;5.17;57.53
48614;BME280;34408;51.426;5.444;2023-03-11T06:51:25;100968.63;;;5.11;57.82
48614;BME280;34408;51.426;5.444;2023-03-11T06:53:53;100973.69;;;5.06;58.14
48614;BME280;34408;51.426;5.444;2023-03-11T06:56:22;100973.22;;;5.03;58.37
48614;BME280;34408;51.426;5.444;2023-03-11T06:58:50;100978.91;;;5.00;57.98
48614;BME280;34408;51.426;5.444;2023-03-11T07:01:21;100982.94;;;4.96;58.31
48614;BME280;34408;51.426;5.444;2023-03-11T07:03:51;100993.41;;;4.97;58.58
48614;BME280;34408;51.426;5.444;2023-03-11T07:06:20;100985.88;;;4.86;58.18
48614;BME280;34408;51.426;5.444;2023-03-11T07:08:50;101000.47;;;4.90;58.52
48614;BME280;34408;51.426;5.444;2023-03-11T07:11:19;100998.00;;;4.88;58.75
48614;BME280;34408;51.426;5.444;2023-03-11T07:13:48;100997.34;;;4.86;58.74
48614;BME280;34408;51.426;5.444;2023-03-11T07:16:17;100999.19;;;4.86;58.85
48614;BME280;34408;51.426;5.444;2023-03-11T07:18:47;101004.69;;;4.84;58.69
48614;BME280;34408;51.426;5.444;2023-03-11T07:21:19;101010.00;;;4.84;58.91
48614;BME280;34408;51.426;5.444;2023-03-11T07:23:48;101009.19;;;4.84;59.15
48614;BME280;34408;51.426;5.444;2023-03-11T07:26:18;101012.66;;;4.84;59.06
48614;BME280;34408;51.426;5.444;2023-03-11T07:28:46;101011.03;;;4.83;59.14
48614;BME280;34408;51.426;5.444;2023-03-11T07:31:15;101005.88;;;4.82;58.97
48614;BME280;34408;51.426;5.444;2023-03-11T07:33:45;101013.22;;;4.80;59.35
48614;BME280;34408;51.426;5.444;2023-03-11T07:36:14;101018.53;;;4.80;58.91
48614;BME280;34408;51.426;5.444;2023-03-11T07:38:44;101023.03;;;4.79;59.46
48614;BME280;34408;51.426;5.444;2023-03-11T07:41:13;101017.72;;;4.79;59.54
48614;BME280;34408;51.426;5.444;2023-03-11T07:43:42;101014.41;;;4.77;59.45
48614;BME280;34408;51.426;5.444;2023-03-11T07:46:12;101019.53;;;4.79;59.76
48614;BME280;34408;51.426;5.444;2023-03-11T07:48:41;101013.44;;;4.93;58.76
48614;BME280;34408;51.426;5.444;2023-03-11T07:51:11;101019.31;;;5.03;58.98
48614;BME280;34408;51.426;5.444;2023-03-11T07:53:39;101028.97;;;5.04;58.27
48614;BME280;34408;51.426;5.444;2023-03-11T07:56:10;101039.81;;;5.17;58.37
48614;BME280;34408;51.426;5.444;2023-03-11T07:58:39;101033.84;;;5.30;57.82
48614;BME280;34408;51.426;5.444;2023-03-11T08:01:08;101035.78;;;5.36;57.52
48614;BME280;34408;51.426;5.444;2023-03-11T08:03:37;101037.25;;;5.39;56.58
48614;BME280;34408;51.426;5.444;2023-03-11T08:06:11;101036.13;;;5.33;57.05
48614;BME280;34408;51.426;5.444;2023-03-11T08:08:39;101046.34;;;5.30;57.08
48614;BME280;34408;51.426;5.444;2023-03-11T08:11:08;101048.06;;;5.22;57.29
48614;BME280;34408;51.426;5.444;2023-03-11T08:13:38;101048.00;;;5.16;57.04
48614;BME280;34408;51.426;5.444;2023-03-11T08:16:07;101050.19;;;5.12;57.78
48614;BME280;34408;51.426;5.444;2023-03-11T08:18:35;101049.09;;;5.07;57.43
48614;BME280;34408;51.426;5.444;2023-03-11T08:21:04;101057.25;;;5.05;57.43
48614;BME280;34408;51.426;5.444;2023-03-11T08:23:32;101054.13;;;5.02;57.63
48614;BME280;34408;51.426;5.444;2023-03-11T08:26:02;101052.66;;;4.99;57.91
48614;BME280;34408;51.426;5.444;2023-03-11T08:28:31;101057.34;;;4.97;58.02
48614;BME280;34408;51.426;5.444;2023-03-11T08:30:59;101064.69;;;4.95;58.20
48614;BME280;34408;51.426;5.444;2023-03-11T08:33:27;101053.38;;;4.93;57.36
48614;BME280;34408;51.426;5.444;2023-03-11T08:35:55;101068.69;;;4.91;57.67
48614;BME280;34408;51.426;5.444;2023-03-11T08:38:23;101067.03;;;4.90;57.15
48614;BME280;34408;51.426;5.444;2023-03-11T08:40:51;101066.22;;;4.89;58.03
48614;BME280;34408;51.426;5.444;2023-03-11T08:43:18;101062.72;;;4.89;57.79
48614;BME280;34408;51.426;5.444;2023-03-11T08:45:48;101066.41;;;4.88;57.87
48614;BME280;34408;51.426;5.444;2023-03-11T08:48:15;101070.91;;;4.87;57.61
48614;BME280;34408;51.426;5.444;2023-03-11T08:50:43;101066.41;;;4.88;57.06
48614;BME280;34408;51.426;5.444;2023-03-11T08:53:19;101076.22;;;4.87;57.35
48614;BME280;34408;51.426;5.444;2023-03-11T08:55:48;101078.06;;;4.87;56.79
48614;BME280;34408;51.426;5.444;2023-03-11T08:58:16;101085.88;;;4.88;56.56
48614;BME280;34408;51.426;5.444;2023-03-11T09:00:44;101085.22;;;4.86;56.79
48614;BME280;34408;51.426;5.444;2023-03-11T09:03:13;101089.91;;;4.84;55.14
48614;BME280;34408;51.426;5.444;2023-03-11T09:05:41;101091.91;;;4.82;55.49
48614;BME280;34408;51.426;5.444;2023-03-11T09:08:09;101092.56;;;4.84;56.54
48614;BME280;34408;51.426;5.444;2023-03-11T09:10:37;101095.88;;;4.86;55.84
48614;BME280;34408;51.426;5.444;2023-03-11T09:13:04;101089.53;;;4.87;56.42
48614;BME280;34408;51.426;5.444;2023-03-11T09:15:32;101089.34;;;4.89;56.29
48614;BME280;34408;51.426;5.444;2023-03-11T09:18:01;101095.69;;;4.88;56.82
48614;BME280;34408;51.426;5.444;2023-03-11T09:20:31;101091.84;;;4.90;55.85
48614;BME280;34408;51.426;5.444;2023-03-11T09:22:58;101095.50;;;4.89;55.98
48614;BME280;34408;51.426;5.444;2023-03-11T09:25:26;101095.50;;;4.89;55.09
48614;BME280;34408;51.426;5.444;2023-03-11T09:27:54;101099.38;;;4.87;55.19
48614;BME280;34408;51.426;5.444;2023-03-11T09:30:21;101102.19;;;4.85;54.72
48614;BME280;34408;51.426;5.444;2023-03-11T09:32:49;101105.69;;;4.86;55.35
48614;BME280;34408;51.426;5.444;2023-03-11T09:35:17;101113.84;;;4.84;55.20
48614;BME280;34408;51.426;5.444;2023-03-11T09:37:46;101118.19;;;4.85;54.36
48614;BME280;34408;51.426;5.444;2023-03-11T09:40:16;101117.19;;;4.86;54.60
48614;BME280;34408;51.426;5.444;2023-03-11T09:42:50;101105.50;;;4.87;54.00
48614;BME280;34408;51.426;5.444;2023-03-11T09:45:24;101111.03;;;4.86;54.58
48614;BME280;34408;51.426;5.444;2023-03-11T09:48:02;101116.16;;;4.87;54.01
48614;BME280;34408;51.426;5.444;2023-03-11T09:50:37;101109.84;;;4.88;54.26
48614;BME280;34408;51.426;5.444;2023-03-11T09:53:18;101114.34;;;4.88;54.07
48614;BME280;34408;51.426;5.444;2023-03-11T09:55:51;101107.00;;;4.90;55.07
48614;BME280;34408;51.426;5.444;2023-03-11T09:58:27;101113.03;;;4.84;55.12
48614;BME280;34408;51.426;5.444;2023-03-11T10:00:56;101111.56;;;4.81;54.40
48614;BME280;34408;51.426;5.444;2023-03-11T10:03:28;101107.88;;;4.82;54.75
48614;BME280;34408;51.426;5.444;2023-03-11T10:06:03;101112.84;;;4.85;54.57
48614;BME280;34408;51.426;5.444;2023-03-11T10:08:39;101108.66;;;4.91;54.92
48614;BME280;34408;51.426;5.444;2023-03-11T10:11:22;101107.66;;;4.92;55.61
48614;BME280;34408;51.426;5.444;2023-03-11T10:14:02;101102.97;;;4.94;55.39
48614;BME280;34408;51.426;5.444;2023-03-11T10:16:39;101104.44;;;4.97;55.31
48614;BME280;34408;51.426;5.444;2023-03-11T10:19:16;101104.25;;;4.98;55.37
48614;BME280;34408;51.426;5.444;2023-03-11T10:21:53;101116.22;;;5.02;55.67
48614;BME280;34408;51.426;5.444;2023-03-11T10:24:47;101113.38;;;5.04;56.29
48614;BME280;34408;51.426;5.444;2023-03-11T10:27:19;101117.34;;;5.08;56.51
48614;BME280;34408;51.426;5.444;2023-03-11T10:29:55;101120.66;;;5.10;56.64
48614;BME280;34408;51.426;5.444;2023-03-11T10:32:30;101124.44;;;5.15;57.02
48614;BME280;34408;51.426;5.444;2023-03-11T10:35:06;101122.25;;;5.34;55.65
48614;BME280;34408;51.426;5.444;2023-03-11T10:37:43;101126.69;;;5.56;55.33
48614;BME280;34408;51.426;5.444;2023-03-11T10:40:25;101125.97;;;5.77;55.35
48614;BME280;34408;51.426;5.444;2023-03-11T10:42:55;101117.88;;;5.85;54.29
48614;BME280;34408;51.426;5.444;2023-03-11T10:45:26;101123.50;;;6.05;53.57
48614;BME280;34408;51.426;5.444;2023-03-11T10:47:56;101130.47;;;6.20;52.35
48614;BME280;34408;51.426;5.444;2023-03-11T10:50:24;101137.19;;;6.31;51.89
48614;BME280;34408;51.426;5.444;2023-03-11T10:53:07;101127.97;;;6.34;51.82
48614;BME280;34408;51.426;5.444;2023-03-11T10:55:45;101129.38;;;6.30;52.21
48614;BME280;34408;51.426;5.444;2023-03-11T10:58:15;101131.50;;;6.19;51.82
48614;BME280;34408;51.426;5.444;2023-03-11T11:00:43;101128.09;;;6.11;52.82
48614;BME280;34408;51.426;5.444;2023-03-11T11:03:19;101129.50;;;6.07;52.34
48614;BME280;34408;51.426;5.444;2023-03-11T11:05:59;101128.38;;;6.01;53.35
48614;BME280;34408;51.426;5.444;2023-03-11T11:08:29;101131.44;;;5.98;53.55
48614;BME280;34408;51.426;5.444;2023-03-11T11:10:59;101127.66;;;5.93;52.53
48614;BME280;34408;51.426;5.444;2023-03-11T11:13:28;101122.69;;;5.90;52.41
48614;BME280;34408;51.426;5.444;2023-03-11T11:15:59;101131.22;;;5.85;51.94
48614;BME280;34408;51.426;5.444;2023-03-11T11:18:30;101132.41;;;5.82;51.71
48614;BME280;34408;51.426;5.444;2023-03-11T11:21:02;101130.38;;;5.84;52.40
48614;BME280;34408;51.426;5.444;2023-03-11T11:23:33;101134.91;;;5.84;52.40
48614;BME280;34408;51.426;5.444;2023-03-11T11:26:06;101131.41;;;5.83;52.90
48614;BME280;34408;51.426;5.444;2023-03-11T11:28:35;101128.53;;;5.85;52.88
48614;BME280;34408;51.426;5.444;2023-03-11T11:31:05;101122.38;;;5.84;52.69
48614;BME280;34408;51.426;5.444;2023-03-11T11:33:38;101134.72;;;5.85;52.76
48614;BME280;34408;51.426;5.444;2023-03-11T11:36:13;101118.72;;;5.85;53.64
48614;BME280;34408;51.426;5.444;2023-03-11T11:38:42;101116.69;;;5.87;53.57
48614;BME280;34408;51.426;5.444;2023-03-11T11:41:15;101125.69;;;5.86;52.83
48614;BME280;34408;51.426;5.444;2023-03-11T11:43:47;101122.84;;;5.88;53.38
48614;BME280;34408;51.426;5.444;2023-03-11T11:46:20;101127.19;;;5.89;53.16
48614;BME280;34408;51.426;5.444;2023-03-11T11:48:55;101127.84;;;5.91;53.74
48614;BME280;34408;51.426;5.444;2023-03-11T11:51:29;101119.00;;;5.91;52.39
48614;BME280;34408;51.426;5.444;2023-03-11T11:54:00;101119.00;;;5.91;53.42
48614;BME280;34408;51.426;5.444;2023-03-11T11:56:33;101123.97;;;5.94;53.46
48614;BME280;34408;51.426;5.444;2023-03-11T11:59:01;101115.97;;;5.94;53.63
48614;BME280;34408;51.426;5.444;2023-03-11T12:01:38;101113.75;;;5.97;53.70
48614;BME280;34408;51.426;5.444;2023-03-11T12:04:18;101116.06;;;6.00;54.66
48614;BME280;34408;51.426;5.444;2023-03-11T12:06:56;101127.19;;;6.04;54.94
48614;BME280;34408;51.426;5.444;2023-03-11T12:09:32;101123.50;;;6.05;54.96
48614;BME280;34408;51.426;5.444;2023-03-11T12:12:11;101118.81;;;6.07;53.39
48614;BME280;34408;51.426;5.444;2023-03-11T12:14:45;101122.97;;;6.09;53.65
48614;BME280;34408;51.426;5.444;2023-03-11T12:17:16;101129.13;;;6.10;52.98
48614;BME280;34408;51.426;5.444;2023-03-11T12:19:49;101125.25;;;6.12;52.83
48614;BME280;34408;51.426;5.444;2023-03-11T12:25:35;101127.38;;;6.17;54.14
48614;BME280;34408;51.426;5.444;2023-03-11T12:28:15;101120.81;;;6.19;54.21
48614;BME280;34408;51.426;5.444;2023-03-11T12:30:47;101116.13;;;6.22;53.98
48614;BME280;34408;51.426;5.444;2023-03-11T12:33:18;101120.44;;;6.23;53.46
48614;BME280;34408;51.426;5.444;2023-03-11T12:35:53;101118.06;;;6.28;54.21
48614;BME280;34408;51.426;5.444;2023-03-11T12:38:29;101114.00;;;6.32;54.32
48614;BME280;34408;51.426;5.444;2023-03-11T12:41:00;101117.75;;;6.37;54.97
48614;BME280;34408;51.426;5.444;2023-03-11T12:47:18;101109.81;;;6.44;55.51
48614;BME280;34408;51.426;5.444;2023-03-11T12:49:47;101104.56;;;6.50;54.90
48614;BME280;34408;51.426;5.444;2023-03-11T12:52:28;101105.38;;;6.51;54.23
48614;BME280;34408;51.426;5.444;2023-03-11T12:55:29;101105.84;;;6.55;54.80
48614;BME280;34408;51.426;5.444;2023-03-11T12:58:04;101109.16;;;6.57;54.67
48614;BME280;34408;51.426;5.444;2023-03-11T13:00:46;101100.13;;;6.58;55.07
48614;BME280;34408;51.426;5.444;2023-03-11T13:03:45;101104.25;;;6.60;54.96
48614;BME280;34408;51.426;5.444;2023-03-11T13:06:26;101087.84;;;6.63;55.14
48614;BME280;34408;51.426;5.444;2023-03-11T13:08:59;101085.63;;;6.67;54.81
48614;BME280;34408;51.426;5.444;2023-03-11T13:11:42;101086.06;;;6.70;55.85
48614;BME280;34408;51.426;5.444;2023-03-11T13:14:27;101085.88;;;6.72;55.56
48614;BME280;34408;51.426;5.444;2023-03-11T13:17:22;101082.00;;;6.74;55.81
48614;BME280;34408;51.426;5.444;2023-03-11T13:19:54;101079.91;;;6.91;55.08
48614;BME280;34408;51.426;5.444;2023-03-11T13:22:45;101083.38;;;7.19;54.89
48614;BME280;34408;51.426;5.444;2023-03-11T13:25:38;101081.53;;;7.48;53.86